メインページ
METAR-TAF:

METAR-TAF

空港 :

ヴェラナ国際空港

マレ, モルディブ

緯度: 04-12N, 経度: 073-32E, 海抜: 2m

現時点の気象観測

当レポートは1時間19分前の10:00(UTC)に作成
西の風 9kt
気温 32°C
湿度 63%
気圧 1008 hPa
視程: 8000m
高度1900ftの雲はほとんどない

METAR: VRMM 141000Z 28009KT 8000 FEW019 32/24 Q1008 NOSIG

時間: 16:19 (11:19 UTC)

予報

当レポートは6時間19分前の05:00(UTC)に作成
予報は14日の 06時(UTC)から 15日の 12時(UTC)まで有効
西/北西の風 10kt
視程: 9000m
高度1900ftの雲はほとんどない

TAF: VRMM 140500Z 1406/1512 29010KT 9000 FEW019

4,000以上の空港の気象観測と天気予報(METAR報とTAF報)

利用可能な観測所は地図上に黄色い丸と赤い丸で示す。

丸の上にカーソルを重ねると観測所名を参照できる。

次にクリックすると気象観測と天気予報を参照できる。

マップの切り替え:黒色「×」印の緑ボタンをクリックして拡大、「-」印の緑ボタンをクリックして縮小、緑色の三角印をクリックして隣りの地図に切り替え


METAR-TAF: